EVA6810 VHHH-RCTP
Flight info
| Callsign | EVA6810 |
|---|---|
| Flight time | N/A |
| Altitude | 37000 |
| Route | DALOL V631 ENVAR M750 TONGA TONGA1A |
| Aircraft | B77L/H-SDE1E2E3FGHIJ2J3J4J5M1RWXY/LB1D1 |
Departure
| Time | 2026-04-30 09:38 |
|---|---|
| Airport | Hong Kong International Airport (VHHH) |
Arrival
| Time | N/A |
|---|---|
| Airport | Taiwan Taoyuan International Airport (RCTP) |
| Time | Latitude | Longitude | Altitude | Speed | Heading |
|---|---|---|---|---|---|
| 2026-04-30 09:21 | 22.30187 | 113.92501 | 35 ft | 0 kts | 341° |
| 2026-04-30 09:26 | 22.30165 | 113.92509 | 35 ft | 4 kts | 341° |
| 2026-04-30 09:26 | 22.30140 | 113.92518 | 35 ft | 3 kts | 341° |
| 2026-04-30 09:27 | 22.30120 | 113.92526 | 34 ft | 4 kts | 324° |
| 2026-04-30 09:27 | 22.30106 | 113.92546 | 33 ft | 4 kts | 268° |
| 2026-04-30 09:27 | 22.30112 | 113.92571 | 35 ft | 4 kts | 251° |
| 2026-04-30 09:27 | 22.30118 | 113.92590 | 34 ft | 0 kts | 251° |
| 2026-04-30 09:29 | 22.30114 | 113.92578 | 36 ft | 4 kts | 251° |
| 2026-04-30 09:29 | 22.30102 | 113.92539 | 35 ft | 6 kts | 251° |
| 2026-04-30 09:30 | 22.30088 | 113.92498 | 34 ft | 6 kts | 251° |
| 2026-04-30 09:30 | 22.30071 | 113.92444 | 36 ft | 9 kts | 251° |
| 2026-04-30 09:30 | 22.30045 | 113.92364 | 36 ft | 13 kts | 250° |
| 2026-04-30 09:30 | 22.30013 | 113.92263 | 36 ft | 14 kts | 251° |
| 2026-04-30 09:31 | 22.29980 | 113.92161 | 36 ft | 14 kts | 250° |
| 2026-04-30 09:31 | 22.29990 | 113.92083 | 36 ft | 11 kts | 327° |
| 2026-04-30 09:31 | 22.30065 | 113.92054 | 36 ft | 11 kts | 341° |
| 2026-04-30 09:31 | 22.30135 | 113.92019 | 36 ft | 11 kts | 312° |
| 2026-04-30 09:32 | 22.30126 | 113.91937 | 36 ft | 12 kts | 251° |
| 2026-04-30 09:32 | 22.30099 | 113.91854 | 36 ft | 12 kts | 251° |
| 2026-04-30 09:32 | 22.30072 | 113.91772 | 36 ft | 12 kts | 250° |
| 2026-04-30 09:32 | 22.30045 | 113.91685 | 36 ft | 13 kts | 251° |
| 2026-04-30 09:33 | 22.30013 | 113.91588 | 36 ft | 14 kts | 251° |
| 2026-04-30 09:33 | 22.29980 | 113.91485 | 36 ft | 15 kts | 250° |
| 2026-04-30 09:33 | 22.29945 | 113.91377 | 36 ft | 16 kts | 251° |
| 2026-04-30 09:33 | 22.29907 | 113.91259 | 36 ft | 17 kts | 250° |
| 2026-04-30 09:34 | 22.29867 | 113.91134 | 36 ft | 18 kts | 251° |
| 2026-04-30 09:34 | 22.29824 | 113.91002 | 37 ft | 19 kts | 251° |
| 2026-04-30 09:34 | 22.29780 | 113.90865 | 36 ft | 20 kts | 251° |
| 2026-04-30 09:34 | 22.29733 | 113.90721 | 37 ft | 21 kts | 251° |
| 2026-04-30 09:35 | 22.29686 | 113.90572 | 36 ft | 21 kts | 251° |
| 2026-04-30 09:35 | 22.29637 | 113.90423 | 36 ft | 21 kts | 251° |
| 2026-04-30 09:35 | 22.29589 | 113.90274 | 37 ft | 21 kts | 251° |
| 2026-04-30 09:35 | 22.29547 | 113.90143 | 37 ft | 16 kts | 251° |
| 2026-04-30 09:36 | 22.29510 | 113.90026 | 37 ft | 16 kts | 251° |
| 2026-04-30 09:36 | 22.29486 | 113.89922 | 37 ft | 10 kts | 270° |
| 2026-04-30 09:36 | 22.29514 | 113.89857 | 36 ft | 10 kts | 317° |
| 2026-04-30 09:36 | 22.29595 | 113.89828 | 34 ft | 14 kts | 6° |
| 2026-04-30 09:37 | 22.29655 | 113.89909 | 34 ft | 16 kts | 71° |
| 2026-04-30 09:37 | 22.29745 | 113.90189 | 35 ft | 76 kts | 71° |
| 2026-04-30 09:37 | 22.29998 | 113.90977 | 36 ft | 146 kts | 71° |
| 2026-04-30 09:37 | 22.30399 | 113.92199 | 99 ft | 191 kts | 68° |
| 2026-04-30 09:38 | 22.30816 | 113.93523 | 866 ft | 182 kts | 69° |
| 2026-04-30 09:38 | 22.31225 | 113.94790 | 1745 ft | 178 kts | 68° |
| 2026-04-30 09:38 | 22.31646 | 113.96094 | 2287 ft | 195 kts | 69° |
| 2026-04-30 09:38 | 22.32128 | 113.97584 | 2549 ft | 225 kts | 69° |
| 2026-04-30 09:39 | 22.32664 | 113.99244 | 3180 ft | 235 kts | 69° |
| 2026-04-30 09:39 | 22.33189 | 114.00881 | 4154 ft | 231 kts | 68° |
| 2026-04-30 09:39 | 22.33709 | 114.02552 | 4781 ft | 241 kts | 73° |
| 2026-04-30 09:39 | 22.33847 | 114.04382 | 5421 ft | 251 kts | 97° |
| 2026-04-30 09:40 | 22.33320 | 114.06194 | 6148 ft | 256 kts | 121° |
| 2026-04-30 09:40 | 22.32190 | 114.07668 | 6867 ft | 256 kts | 144° |
| 2026-04-30 09:40 | 22.30621 | 114.08537 | 7580 ft | 253 kts | 170° |
| 2026-04-30 09:40 | 22.28890 | 114.08727 | 8316 ft | 250 kts | 184° |
| 2026-04-30 09:41 | 22.27146 | 114.08721 | 9074 ft | 252 kts | 185° |
| 2026-04-30 09:41 | 22.25386 | 114.08718 | 9835 ft | 254 kts | 185° |
| 2026-04-30 09:41 | 22.23627 | 114.09039 | 10363 ft | 267 kts | 156° |
| 2026-04-30 09:41 | 22.22160 | 114.10406 | 10665 ft | 297 kts | 129° |
| 2026-04-30 09:42 | 22.20938 | 114.12311 | 10866 ft | 322 kts | 128° |
| 2026-04-30 09:42 | 22.19592 | 114.14383 | 11084 ft | 350 kts | 128° |
| 2026-04-30 09:42 | 22.18137 | 114.16626 | 11272 ft | 379 kts | 127° |
| 2026-04-30 09:42 | 22.16618 | 114.18987 | 11747 ft | 395 kts | 127° |
| 2026-04-30 09:43 | 22.15036 | 114.21458 | 12483 ft | 404 kts | 127° |
| 2026-04-30 09:43 | 22.13430 | 114.23973 | 13366 ft | 410 kts | 127° |
| 2026-04-30 09:43 | 22.11800 | 114.26526 | 14206 ft | 415 kts | 127° |
| 2026-04-30 09:43 | 22.10148 | 114.29110 | 14971 ft | 420 kts | 127° |
| 2026-04-30 09:44 | 22.08478 | 114.31717 | 15762 ft | 425 kts | 127° |
| 2026-04-30 09:44 | 22.06787 | 114.34355 | 16534 ft | 430 kts | 127° |
| 2026-04-30 09:44 | 22.05075 | 114.37023 | 17287 ft | 435 kts | 127° |
| 2026-04-30 09:44 | 22.03339 | 114.39727 | 18026 ft | 440 kts | 127° |
| 2026-04-30 09:45 | 22.01585 | 114.42457 | 18714 ft | 445 kts | 127° |
| 2026-04-30 09:45 | 21.99809 | 114.45220 | 19370 ft | 449 kts | 127° |